Terminal Aerodrome Forecast
Issued by NWS

Home | Current Version | Previous Version | Text Only | Print | Product List | Glossary On
Versions: 1 2 3 4 5 6 7 8 9 10 11 12
819
FTUS42 TJSJ 282339
TAFJMZ
TAF
TJMZ 282339Z 2900/2924 08012KT P6SM FEW025 SCT070
     FM290400 09015KT P6SM -RA SCT030 SCT060 BKN090
     FM291400 07012KT P6SM VCSH SCT025 SCT040 BKN100
     FM291700 08020G32KT P6SM VCTS SCT025CB BKN040
      AMD NOT SKED=

USA.gov is the U.S. government's official web portal to all federal, state and local government web resources and services.